createdAt,value
2018-02-17T00:00:20.706Z,10.45
2018-02-17T00:02:48.200Z,10.10
2018-02-17T00:05:15.676Z,10.52
2018-02-17T00:07:43.192Z,10.60
2018-02-17T00:10:10.683Z,12.05
2018-02-17T00:12:38.164Z,9.63
2018-02-17T00:15:05.635Z,10.48
2018-02-17T00:17:33.454Z,10.88
2018-02-17T00:20:01.710Z,11.52
2018-02-17T00:22:29.220Z,11.93
2018-02-17T00:24:57.456Z,12.55
2018-02-17T00:27:24.943Z,11.40
2018-02-17T00:29:52.422Z,11.32
2018-02-17T00:32:20.253Z,11.18
2018-02-17T00:34:48.503Z,10.55
2018-02-17T00:37:15.979Z,10.82
2018-02-17T00:39:43.822Z,10.80
2018-02-17T00:42:11.332Z,10.95
2018-02-17T00:44:38.821Z,10.90
2018-02-17T00:47:06.690Z,10.23
2018-02-17T00:49:34.175Z,11.20
2018-02-17T00:52:01.640Z,11.15
2018-02-17T00:54:29.440Z,9.60
2018-02-17T00:56:57.315Z,11.55
2018-02-17T00:59:24.797Z,11.10
2018-02-17T01:01:52.318Z,9.88
2018-02-17T01:04:20.563Z,10.43
2018-02-17T01:06:48.090Z,10.98
2018-02-17T01:09:15.582Z,11.02
2018-02-17T01:11:43.079Z,9.77
2018-02-17T01:14:11.316Z,10.73
2018-02-17T01:16:39.124Z,11.23
2018-02-17T01:19:06.604Z,11.12
2018-02-17T01:21:34.096Z,10.82
2018-02-17T01:24:01.634Z,10.93
2018-02-17T01:26:29.100Z,10.68
2018-02-17T01:28:56.952Z,11.30
2018-02-17T01:31:24.677Z,10.85
2018-02-17T01:33:52.924Z,9.40
2018-02-17T01:36:20.399Z,10.27
2018-02-17T01:38:47.908Z,10.05
2018-02-17T01:41:15.419Z,11.27
2018-02-17T01:43:42.906Z,9.65
2018-02-17T01:46:10.560Z,10.75
2018-02-17T01:48:38.919Z,9.98
2018-02-17T01:51:07.189Z,9.40
2018-02-17T01:53:34.962Z,10.18
2018-02-17T01:56:03.219Z,11.25
2018-02-17T01:58:30.700Z,9.05
2018-02-17T02:00:59.172Z,10.48
2018-02-17T02:03:26.635Z,9.15
2018-02-17T02:05:54.886Z,9.80
2018-02-17T02:08:22.544Z,9.88
2018-02-17T02:10:50.034Z,9.60
2018-02-17T02:13:19.193Z,9.98
2018-02-17T02:15:46.991Z,10.40
2018-02-17T02:18:15.234Z,10.43
2018-02-17T02:20:42.714Z,9.43
2018-02-17T02:23:10.391Z,8.40
2018-02-17T02:25:38.671Z,10.63
2018-02-17T02:28:06.896Z,10.05
2018-02-17T02:30:35.167Z,9.55
2018-02-17T02:33:02.664Z,9.10
2018-02-17T02:35:30.157Z,9.18
2018-02-17T02:37:57.796Z,9.73
2018-02-17T02:40:26.045Z,9.35
2018-02-17T02:42:53.517Z,8.90
2018-02-17T02:45:21.393Z,9.48
2018-02-17T02:47:49.637Z,9.90
2018-02-17T02:50:17.122Z,9.27
2018-02-17T02:52:45.597Z,10.00
2018-02-17T02:55:13.066Z,9.75
2018-02-17T02:57:40.586Z,9.63
2018-02-17T03:00:08.108Z,10.18
2018-02-17T03:02:35.576Z,9.48
2018-02-17T03:05:03.071Z,9.55
2018-02-17T03:07:30.977Z,9.23
2018-02-17T03:09:58.464Z,9.50
2018-02-17T03:12:25.928Z,9.57
2018-02-17T03:14:53.844Z,9.45
2018-02-17T03:17:21.328Z,9.65
2018-02-17T03:19:48.819Z,8.90
2018-02-17T03:22:16.578Z,8.30
2018-02-17T03:24:44.052Z,8.88
2018-02-17T03:27:11.535Z,9.55
2018-02-17T03:29:39.965Z,9.38
2018-02-17T03:32:07.432Z,9.05
2018-02-17T03:34:34.908Z,9.50
2018-02-17T03:37:02.724Z,7.53
2018-02-17T03:39:30.203Z,9.82
2018-02-17T03:41:57.755Z,8.68
2018-02-17T03:44:25.291Z,10.00
2018-02-17T03:46:53.656Z,8.68
2018-02-17T03:49:21.524Z,9.13
2018-02-17T03:51:49.939Z,9.10
2018-02-17T03:54:17.494Z,8.85
2018-02-17T03:56:44.951Z,9.07
2018-02-17T03:59:12.757Z,8.95
2018-02-17T04:01:40.239Z,9.77
2018-02-17T04:04:08.475Z,9.00
2018-02-17T04:06:36.175Z,7.60
2018-02-17T04:09:04.417Z,8.77
2018-02-17T04:11:31.899Z,8.70
2018-02-17T04:14:00.500Z,8.52
2018-02-17T04:16:27.963Z,8.15
2018-02-17T04:18:55.435Z,9.25
2018-02-17T04:21:23.210Z,8.00
2018-02-17T04:23:50.719Z,8.25
2018-02-17T04:26:18.979Z,8.57
2018-02-17T04:28:46.610Z,7.50
2018-02-17T04:31:14.121Z,8.73
2018-02-17T04:33:42.368Z,8.05
2018-02-17T04:36:09.882Z,8.88
2018-02-17T04:38:37.399Z,8.60
2018-02-17T04:41:06.219Z,9.05
2018-02-17T04:43:39.328Z,8.43
2018-02-17T04:46:12.806Z,8.10
2018-02-17T04:48:52.334Z,8.38
2018-02-17T04:51:22.158Z,8.25
2018-02-17T04:53:51.120Z,8.10
2018-02-17T04:56:35.292Z,8.00
2018-02-17T05:12:33.640Z,7.75
2018-02-17T05:15:07.611Z,8.00
2018-02-17T05:17:50.163Z,8.98
2018-02-17T05:20:17.645Z,8.48
2018-02-17T05:22:46.645Z,8.75
2018-02-17T05:25:17.972Z,8.15
2018-02-17T05:27:50.401Z,8.93
2018-02-17T05:30:19.832Z,8.73
2018-02-17T05:46:16.972Z,8.65
2018-02-17T05:48:47.409Z,9.13
2018-02-17T05:51:14.884Z,8.15
2018-02-17T05:53:42.698Z,7.93
2018-02-17T05:56:10.201Z,8.20
2018-02-17T05:58:37.643Z,8.25
2018-02-17T06:01:06.292Z,9.32
2018-02-17T06:03:33.756Z,8.02
2018-02-17T06:06:01.247Z,9.00
2018-02-17T06:08:30.139Z,8.93
2018-02-17T06:10:57.607Z,8.25
2018-02-17T06:13:25.096Z,8.27
2018-02-17T06:15:52.887Z,9.13
2018-02-17T06:18:21.127Z,9.60
2018-02-17T06:20:48.625Z,8.95
2018-02-17T06:23:17.191Z,9.00
2018-02-17T06:25:46.348Z,9.55
2018-02-17T06:28:13.823Z,9.13
2018-02-17T06:30:41.613Z,9.02
2018-02-17T06:33:09.860Z,9.07
2018-02-17T06:35:37.344Z,10.25
2018-02-17T06:38:05.859Z,8.85
2018-02-17T06:40:33.340Z,10.18
2018-02-17T06:43:00.817Z,9.88
2018-02-17T06:45:28.310Z,10.52
2018-02-17T06:47:56.577Z,10.52
2018-02-17T06:50:24.818Z,11.15
2018-02-17T06:52:52.317Z,10.93
2018-02-17T06:55:20.552Z,10.52
2018-02-17T06:57:48.032Z,10.73
2018-02-17T07:00:16.541Z,11.55
2018-02-17T07:02:44.012Z,10.70
2018-02-17T07:05:11.501Z,11.27
2018-02-17T07:07:39.192Z,10.95
2018-02-17T07:10:07.430Z,11.85
2018-02-17T07:12:34.900Z,11.90
2018-02-17T07:15:02.705Z,12.60
2018-02-17T07:17:30.952Z,12.60
2018-02-17T07:19:58.457Z,11.35
2018-02-17T07:22:25.939Z,14.23
2018-02-17T07:24:53.422Z,12.35
2018-02-17T07:27:20.918Z,12.70
2018-02-17T07:29:48.756Z,12.27
2018-02-17T07:32:17.004Z,13.05
2018-02-17T07:34:44.484Z,13.30
2018-02-17T07:37:11.994Z,14.15
2018-02-17T07:39:39.495Z,13.00
2018-02-17T07:42:07.030Z,12.88
2018-02-17T07:44:34.673Z,13.40
2018-02-17T07:47:02.227Z,14.07
2018-02-17T07:49:29.694Z,13.75
2018-02-17T07:51:57.224Z,14.55
2018-02-17T07:54:25.139Z,13.98
2018-02-17T07:56:53.481Z,13.65
2018-02-17T07:59:20.980Z,13.73
2018-02-17T08:01:48.472Z,14.48
2018-02-17T08:04:16.741Z,13.77
2018-02-17T08:06:44.632Z,15.18
2018-02-17T08:09:12.169Z,15.13
2018-02-17T08:11:39.672Z,14.20
2018-02-17T08:14:07.484Z,14.60
2018-02-17T08:16:35.725Z,14.07
2018-02-17T08:19:03.200Z,15.20
2018-02-17T08:21:30.992Z,13.25
2018-02-17T08:23:59.229Z,16.33
2018-02-17T08:26:26.720Z,15.40
2018-02-17T08:28:54.480Z,15.25
2018-02-17T08:31:22.799Z,16.27
2018-02-17T08:33:50.275Z,17.25
2018-02-17T08:36:17.770Z,19.77
2018-02-17T08:38:45.999Z,17.37
2018-02-17T08:41:13.550Z,17.48
2018-02-17T08:43:41.272Z,16.52
2018-02-17T08:46:09.585Z,19.42
2018-02-17T08:48:37.072Z,17.05
2018-02-17T08:51:04.917Z,16.55
2018-02-17T08:53:32.383Z,16.40
2018-02-17T08:56:00.621Z,16.12
2018-02-17T08:58:28.476Z,17.85
2018-02-17T09:00:56.721Z,16.50
2018-02-17T09:03:24.345Z,16.40
2018-02-17T09:05:51.847Z,15.23
2018-02-17T09:08:19.334Z,15.88
2018-02-17T09:10:48.825Z,13.68
2018-02-17T09:13:16.954Z,16.48
2018-02-17T09:15:45.241Z,15.57
2018-02-17T09:18:13.607Z,16.15
2018-02-17T09:20:41.689Z,16.23
2018-02-17T09:23:09.259Z,14.23
2018-02-17T09:25:36.746Z,16.08
2018-02-17T09:28:05.223Z,15.10
2018-02-17T09:30:33.497Z,16.58
2018-02-17T09:33:02.020Z,15.45
2018-02-17T09:35:29.882Z,16.35
2018-02-17T09:37:57.546Z,16.37
2018-02-17T09:40:25.104Z,17.25
2018-02-17T09:42:52.930Z,16.60
2018-02-17T09:45:20.403Z,17.23
2018-02-17T09:47:48.644Z,16.17
2018-02-17T09:50:16.457Z,17.12
2018-02-17T09:52:43.980Z,17.65
2018-02-17T09:55:11.451Z,16.42
2018-02-17T09:57:39.762Z,16.27
2018-02-17T10:00:07.330Z,16.62
2018-02-17T10:02:34.825Z,16.27
2018-02-17T10:05:03.153Z,16.80
2018-02-17T10:07:30.627Z,16.87
2018-02-17T10:09:58.121Z,15.50
2018-02-17T10:12:26.645Z,16.17
2018-02-17T10:14:54.196Z,17.80
2018-02-17T10:17:21.798Z,18.60
2018-02-17T10:19:49.484Z,17.20
2018-02-17T10:22:17.017Z,19.10
2018-02-17T10:24:44.513Z,20.33
2018-02-17T10:27:13.735Z,20.98
2018-02-17T10:29:41.204Z,18.60
2018-02-17T10:32:08.688Z,20.27
2018-02-17T10:34:36.908Z,18.80
2018-02-17T10:37:05.168Z,20.17
2018-02-17T10:39:34.211Z,19.10
2018-02-17T10:42:01.764Z,20.58
2018-02-17T10:44:29.234Z,19.15
2018-02-17T10:46:56.700Z,19.75
2018-02-17T10:49:25.036Z,19.02
2018-02-17T10:51:52.528Z,19.23
2018-02-17T10:54:20.003Z,18.42
2018-02-17T10:56:47.488Z,18.48
2018-02-17T10:59:15.723Z,18.92
2018-02-17T11:01:43.210Z,19.05
2018-02-17T11:04:11.003Z,20.50
2018-02-17T11:06:38.476Z,18.52
2018-02-17T11:09:05.965Z,18.98
2018-02-17T11:11:33.768Z,18.17
2018-02-17T11:14:01.365Z,19.02
2018-02-17T11:16:28.843Z,20.00
2018-02-17T11:18:56.328Z,20.65
2018-02-17T11:21:24.609Z,20.23
2018-02-17T11:23:52.853Z,20.35
2018-02-17T11:26:20.386Z,20.05
2018-02-17T11:28:47.876Z,20.62
2018-02-17T11:31:15.363Z,20.35
2018-02-17T11:33:43.935Z,18.90
2018-02-17T11:36:11.417Z,20.12
2018-02-17T11:38:38.892Z,20.20
2018-02-17T11:41:06.735Z,18.42
2018-02-17T11:43:34.977Z,20.45
2018-02-17T11:46:02.471Z,19.05
2018-02-17T11:48:30.729Z,20.40
2018-02-17T11:50:59.049Z,20.45
2018-02-17T11:53:26.537Z,17.62
2018-02-17T11:55:54.310Z,18.02
2018-02-17T11:58:21.788Z,17.55
2018-02-17T12:00:50.039Z,17.75
2018-02-17T12:03:17.870Z,18.65
2018-02-17T12:05:45.404Z,16.95
2018-02-17T12:08:12.891Z,18.20
2018-02-17T12:10:40.718Z,17.48
2018-02-17T12:13:09.252Z,17.83
2018-02-17T12:15:36.801Z,11.90
2018-02-17T12:18:04.338Z,11.40
2018-02-17T12:20:31.834Z,12.98
2018-02-17T12:22:59.339Z,15.35
2018-02-17T12:25:27.847Z,16.10
2018-02-17T12:27:56.195Z,14.52
2018-02-17T12:30:24.462Z,13.80
2018-02-17T12:32:53.037Z,13.57
2018-02-17T12:35:20.525Z,13.55
2018-02-17T12:37:48.001Z,15.50
2018-02-17T12:40:15.491Z,15.43
2018-02-17T12:42:42.973Z,14.87
2018-02-17T12:45:11.228Z,14.70
2018-02-17T12:47:39.012Z,10.63
2018-02-17T12:50:07.271Z,13.77
2018-02-17T12:52:34.745Z,13.65
2018-02-17T12:55:03.227Z,13.40
2018-02-17T12:57:31.476Z,13.45
2018-02-17T12:59:59.736Z,14.18
2018-02-17T13:02:27.239Z,11.90
2018-02-17T13:04:54.736Z,14.52
2018-02-17T13:07:22.211Z,12.73
2018-02-17T13:09:49.709Z,12.45
2018-02-17T13:12:17.958Z,16.08
2018-02-17T13:14:45.484Z,13.70
2018-02-17T13:17:13.200Z,11.25
2018-02-17T13:19:41.451Z,13.57
2018-02-17T13:22:09.744Z,13.38
2018-02-17T13:24:37.258Z,13.75
2018-02-17T13:27:04.737Z,13.50
2018-02-17T13:29:33.007Z,13.48
2018-02-17T13:32:00.501Z,13.00
2018-02-17T13:34:27.969Z,12.43
2018-02-17T13:36:56.236Z,13.23
2018-02-17T13:39:24.862Z,12.50
2018-02-17T13:41:52.351Z,13.75
2018-02-17T13:44:19.844Z,14.60
2018-02-17T13:46:48.099Z,13.43
2018-02-17T13:49:15.582Z,15.05
2018-02-17T13:51:43.845Z,11.90
2018-02-17T13:54:11.324Z,13.40
2018-02-17T13:56:38.803Z,14.30
2018-02-17T13:59:06.297Z,14.30
2018-02-17T14:01:34.075Z,17.08
2018-02-17T14:04:01.557Z,13.55
2018-02-17T14:06:29.112Z,10.77
2018-02-17T14:08:56.598Z,15.00
2018-02-17T14:11:24.060Z,15.88
2018-02-17T14:13:51.567Z,13.00
2018-02-17T14:16:19.451Z,13.60
2018-02-17T14:18:47.813Z,13.35
2018-02-17T14:21:16.069Z,14.13
2018-02-17T14:23:43.956Z,14.32
2018-02-17T14:26:11.434Z,14.30
2018-02-17T14:28:38.916Z,14.38
2018-02-17T14:31:06.684Z,13.65
2018-02-17T14:33:34.187Z,11.05
2018-02-17T14:36:02.433Z,14.00
2018-02-17T14:38:29.953Z,14.40
2018-02-17T14:40:57.444Z,12.82
2018-02-17T14:43:24.931Z,15.48
2018-02-17T14:45:52.700Z,16.00
2018-02-17T14:48:20.174Z,15.20
2018-02-17T14:50:48.415Z,15.65
2018-02-17T14:53:16.241Z,15.75
2018-02-17T14:55:43.709Z,14.95
2018-02-17T14:58:11.205Z,13.20
2018-02-17T15:00:38.979Z,13.68
2018-02-17T15:03:07.224Z,11.27
2018-02-17T15:05:34.754Z,13.90
2018-02-17T15:08:02.574Z,15.05
2018-02-17T15:10:30.855Z,14.65
2018-02-17T15:12:58.326Z,13.93
2018-02-17T15:15:26.934Z,15.25
2018-02-17T15:17:54.424Z,14.73
2018-02-17T15:20:22.667Z,14.90
2018-02-17T15:22:50.488Z,16.17
2018-02-17T15:25:18.732Z,14.10
2018-02-17T15:27:46.210Z,15.55
2018-02-17T15:30:13.840Z,14.50
2018-02-17T15:32:41.710Z,14.70
2018-02-17T15:35:09.939Z,17.62
2018-02-17T15:37:38.551Z,14.38
2018-02-17T15:40:06.031Z,17.25
2018-02-17T15:42:33.499Z,17.48
2018-02-17T15:45:01.191Z,15.95
2018-02-17T15:47:29.460Z,19.23
2018-02-17T15:49:57.708Z,16.02
2018-02-17T15:52:25.449Z,16.90
2018-02-17T15:54:52.923Z,16.60
2018-02-17T15:57:20.393Z,19.10
2018-02-17T15:59:47.876Z,16.90
2018-02-17T16:02:16.134Z,19.12
2018-02-17T16:04:43.616Z,18.62
2018-02-17T16:07:12.290Z,18.92
2018-02-17T16:09:40.611Z,18.23
2018-02-17T16:12:08.106Z,19.05
2018-02-17T16:14:36.505Z,19.02
2018-02-17T16:17:05.703Z,19.12
2018-02-17T16:19:34.126Z,18.98
2018-02-17T16:22:01.611Z,21.37
2018-02-17T16:24:29.123Z,20.65
2018-02-17T16:26:56.621Z,20.70
2018-02-17T16:29:24.528Z,19.55
2018-02-17T16:31:52.763Z,20.62
2018-02-17T16:34:20.251Z,21.10
2018-02-17T16:36:48.839Z,19.65
2018-02-17T16:39:17.128Z,20.10
2018-02-17T16:41:45.368Z,21.85
2018-02-17T16:44:13.128Z,21.65
2018-02-17T16:46:40.605Z,20.30
2018-02-17T16:49:08.083Z,22.02
2018-02-17T16:51:35.587Z,23.70
2018-02-17T16:54:03.104Z,25.17
2018-02-17T16:56:30.596Z,28.05
2018-02-17T16:58:58.399Z,26.17
2018-02-17T17:01:25.871Z,27.55
2018-02-17T17:03:54.112Z,26.50
2018-02-17T17:06:21.604Z,24.90
2018-02-17T17:08:49.917Z,21.80
2018-02-17T17:11:17.395Z,22.50
2018-02-17T17:13:44.943Z,20.35
2018-02-17T17:16:12.440Z,18.77
2018-02-17T17:18:40.850Z,19.45
2018-02-17T17:21:09.434Z,20.10
2018-02-17T17:23:36.951Z,19.42
2018-02-17T17:26:04.439Z,19.73
2018-02-17T17:28:32.332Z,21.17
2018-02-17T17:30:59.845Z,22.67
2018-02-17T17:33:28.115Z,23.15
2018-02-17T17:35:55.903Z,25.12
2018-02-17T17:38:24.186Z,22.67
2018-02-17T17:40:51.671Z,23.92
2018-02-17T17:43:19.865Z,25.85
2018-02-17T17:45:47.368Z,26.45
2018-02-17T17:48:14.884Z,28.02
2018-02-17T17:50:42.808Z,27.90
2018-02-17T17:53:10.351Z,30.23
2018-02-17T17:55:38.614Z,27.48
2018-02-17T17:58:07.034Z,28.10
2018-02-17T18:00:34.512Z,26.90
2018-02-17T18:03:02.025Z,26.02
2018-02-17T18:05:30.299Z,25.92
2018-02-17T18:07:57.784Z,26.12
2018-02-17T18:10:26.300Z,26.98
2018-02-17T18:12:53.824Z,26.75
2018-02-17T18:15:23.017Z,28.60
2018-02-17T18:17:50.980Z,29.45
2018-02-17T18:20:20.032Z,31.12
2018-02-17T18:22:48.302Z,30.15
2018-02-17T18:25:15.785Z,30.90
2018-02-17T18:27:44.052Z,29.80
2018-02-17T18:30:12.327Z,30.08
2018-02-17T18:32:39.826Z,29.90
2018-02-17T18:35:07.322Z,28.27
2018-02-17T18:37:35.130Z,32.70
2018-02-17T18:40:02.616Z,38.60
2018-02-17T18:42:30.383Z,33.72
2018-02-17T18:44:57.938Z,45.90
2018-02-17T18:47:25.428Z,45.75
2018-02-17T18:49:52.958Z,50.05
2018-02-17T18:52:20.465Z,45.17
2018-02-17T18:54:48.729Z,38.20
2018-02-17T18:57:16.244Z,38.05
2018-02-17T18:59:43.822Z,40.25
2018-02-17T19:02:11.321Z,40.33
2018-02-17T19:04:38.996Z,41.03
2018-02-17T19:07:06.473Z,39.40
2018-02-17T19:09:34.815Z,39.60
2018-02-17T19:12:03.300Z,32.90
2018-02-17T19:14:32.554Z,35.40
2018-02-17T19:17:00.161Z,33.78
2018-02-17T19:19:28.123Z,28.50
2018-02-17T19:21:57.253Z,31.58
2018-02-17T19:24:25.604Z,30.17
2018-02-17T19:26:53.114Z,29.75
2018-02-17T19:29:20.608Z,29.75
2018-02-17T19:31:48.088Z,28.35
2018-02-17T19:34:15.607Z,31.70
2018-02-17T19:36:43.899Z,27.08
2018-02-17T19:39:12.159Z,29.12
2018-02-17T19:41:39.978Z,30.60
2018-02-17T19:44:07.492Z,29.73
2018-02-17T19:46:35.805Z,31.55
2018-02-17T19:49:03.473Z,32.08
2018-02-17T19:51:31.214Z,35.20
2018-02-17T19:53:58.700Z,32.72
2018-02-17T19:56:26.624Z,33.47
2018-02-17T19:58:54.507Z,33.90
2018-02-17T20:01:22.011Z,35.13
2018-02-17T20:03:49.525Z,35.28
2018-02-17T20:06:17.219Z,38.22
2018-02-17T20:08:44.720Z,34.78
2018-02-17T20:11:12.997Z,37.38
2018-02-17T20:13:40.560Z,35.60
2018-02-17T20:16:08.708Z,35.65
2018-02-17T20:18:36.611Z,34.40
2018-02-17T20:21:04.147Z,32.63
2018-02-17T20:23:31.694Z,35.10
2018-02-17T20:25:59.484Z,36.05
2018-02-17T20:28:27.768Z,34.42
2018-02-17T20:30:55.268Z,35.40
2018-02-17T20:33:23.913Z,36.92
2018-02-17T20:35:52.166Z,40.83
2018-02-17T20:38:19.640Z,38.60
2018-02-17T20:40:48.238Z,36.67
2018-02-17T20:43:16.497Z,38.85
2018-02-17T20:45:44.762Z,33.63
2018-02-17T20:48:13.597Z,33.58
2018-02-17T20:50:41.093Z,35.10
2018-02-17T20:53:08.590Z,32.17
2018-02-17T20:55:37.180Z,29.58
2018-02-17T20:58:04.667Z,30.95
2018-02-17T21:00:32.162Z,33.70
2018-02-17T21:02:59.756Z,37.60
2018-02-17T21:05:27.304Z,33.08
2018-02-17T21:07:55.540Z,33.90
2018-02-17T21:10:23.066Z,35.45
2018-02-17T21:12:50.559Z,32.92
2018-02-17T21:15:18.050Z,33.55
2018-02-17T21:17:46.651Z,37.67
2018-02-17T21:20:14.208Z,38.45
2018-02-17T21:22:41.721Z,38.58
2018-02-17T21:25:09.630Z,41.65
2018-02-17T21:27:37.133Z,38.05
2018-02-17T21:30:04.675Z,37.42
2018-02-17T21:32:32.508Z,37.90
2018-02-17T21:35:00.103Z,35.90
2018-02-17T21:37:27.626Z,36.30
2018-02-17T21:39:55.153Z,34.05
2018-02-17T21:42:22.647Z,36.65
2018-02-17T21:44:50.123Z,36.08
2018-02-17T21:47:17.679Z,38.50
2018-02-17T21:49:45.169Z,34.17
2018-02-17T21:52:12.669Z,34.33
2018-02-17T21:54:40.190Z,34.25
2018-02-17T21:57:07.713Z,33.10
2018-02-17T21:59:35.274Z,34.22
2018-02-17T22:02:16.090Z,35.15
2018-02-17T22:04:44.368Z,34.40
2018-02-17T22:07:12.612Z,40.95
2018-02-17T22:09:41.291Z,41.33
2018-02-17T22:12:08.791Z,36.95
2018-02-17T22:14:37.180Z,34.17
2018-02-17T22:17:05.651Z,35.55
2018-02-17T22:19:33.954Z,36.47
2018-02-17T22:24:35.312Z,41.15
2018-02-17T22:27:03.561Z,43.53
2018-02-17T22:29:31.060Z,42.25
2018-02-17T22:31:58.586Z,44.60
2018-02-17T22:34:26.874Z,42.17
2018-02-17T22:36:54.376Z,40.67
2018-02-17T22:47:55.844Z,42.80
2018-02-17T22:50:26.775Z,40.12
2018-02-17T22:52:54.284Z,36.05
2018-02-17T22:55:22.086Z,35.83
2018-02-17T22:57:50.324Z,36.70
2018-02-17T23:00:29.886Z,36.15
2018-02-17T23:02:57.476Z,36.92
2018-02-17T23:05:25.729Z,33.40
2018-02-17T23:07:53.208Z,34.88
2018-02-17T23:10:20.710Z,36.28
2018-02-17T23:12:48.210Z,35.17
2018-02-17T23:15:16.499Z,33.70
2018-02-17T23:17:44.129Z,31.37
2018-02-17T23:20:11.617Z,32.67
2018-02-17T23:22:39.136Z,32.45
2018-02-17T23:25:06.624Z,33.90
2018-02-17T23:27:34.868Z,32.42
2018-02-17T23:30:02.372Z,33.58
2018-02-17T23:32:29.904Z,33.00
2018-02-17T23:34:57.396Z,35.22
2018-02-17T23:37:25.381Z,34.72
2018-02-17T23:39:53.180Z,35.75
2018-02-17T23:42:20.695Z,33.90
2018-02-17T23:44:48.542Z,34.25
2018-02-17T23:47:16.792Z,35.13
2018-02-17T23:49:44.364Z,33.78
2018-02-17T23:52:12.785Z,34.20
2018-02-17T23:54:40.315Z,35.13
2018-02-17T23:57:08.649Z,34.10
2018-02-17T23:59:36.156Z,33.65
